sensor_id;sensor_type;location;lat;lon;timestamp;pressure;altitude;pressure_sealevel;temperature;humidity
53246;BME280;39569;51.090;-1.786;2023-04-27T00:00:29;101074.69;;;15.67;41.41
53246;BME280;39569;51.090;-1.786;2023-04-27T00:02:56;101074.69;;;15.67;41.30
53246;BME280;39569;51.090;-1.786;2023-04-27T00:05:22;101079.66;;;15.70;41.44
53246;BME280;39569;51.090;-1.786;2023-04-27T00:07:50;101077.41;;;15.73;41.64
53246;BME280;39569;51.090;-1.786;2023-04-27T00:10:17;101062.50;;;15.71;41.42
53246;BME280;39569;51.090;-1.786;2023-04-27T00:12:44;101064.06;;;15.59;41.59
53246;BME280;39569;51.090;-1.786;2023-04-27T00:15:11;101056.63;;;15.61;41.35
53246;BME280;39569;51.090;-1.786;2023-04-27T00:17:37;101052.06;;;15.55;41.40
53246;BME280;39569;51.090;-1.786;2023-04-27T00:20:05;101041.22;;;15.48;41.77
53246;BME280;39569;51.090;-1.786;2023-04-27T00:22:34;101041.63;;;15.45;41.86
53246;BME280;39569;51.090;-1.786;2023-04-27T00:25:02;101043.50;;;15.51;41.94
53246;BME280;39569;51.090;-1.786;2023-04-27T00:27:29;101042.78;;;15.36;42.06
53246;BME280;39569;51.090;-1.786;2023-04-27T00:29:56;101048.56;;;15.33;42.27
53246;BME280;39569;51.090;-1.786;2023-04-27T00:32:23;101050.22;;;15.34;42.31
53246;BME280;39569;51.090;-1.786;2023-04-27T00:34:49;101050.03;;;15.36;42.39
53246;BME280;39569;51.090;-1.786;2023-04-27T00:37:16;101051.41;;;15.25;42.50
53246;BME280;39569;51.090;-1.786;2023-04-27T00:39:43;101046.84;;;15.26;42.38
53246;BME280;39569;51.090;-1.786;2023-04-27T00:42:12;101050.47;;;15.39;42.18
53246;BME280;39569;51.090;-1.786;2023-04-27T00:44:41;101049.59;;;15.32;42.62
53246;BME280;39569;51.090;-1.786;2023-04-27T00:47:08;101042.91;;;15.49;42.49
53246;BME280;39569;51.090;-1.786;2023-04-27T00:49:36;101043.34;;;15.53;42.18
53246;BME280;39569;51.090;-1.786;2023-04-27T00:52:03;101042.94;;;15.56;42.20
53246;BME280;39569;51.090;-1.786;2023-04-27T00:54:30;101028.47;;;15.63;41.88
53246;BME280;39569;51.090;-1.786;2023-04-27T00:56:57;101032.91;;;15.84;41.54
53246;BME280;39569;51.090;-1.786;2023-04-27T00:59:26;101030.69;;;16.01;41.41
53246;BME280;39569;51.090;-1.786;2023-04-27T01:01:53;101025.31;;;16.07;41.06
53246;BME280;39569;51.090;-1.786;2023-04-27T01:04:21;101022.41;;;16.09;41.17
53246;BME280;39569;51.090;-1.786;2023-04-27T01:06:48;101025.16;;;16.22;40.86
53246;BME280;39569;51.090;-1.786;2023-04-27T01:09:14;101027.88;;;16.35;40.74
53246;BME280;39569;51.090;-1.786;2023-04-27T01:11:44;101018.97;;;16.34;40.86
53246;BME280;39569;51.090;-1.786;2023-04-27T01:14:11;101017.38;;;16.53;40.52
53246;BME280;39569;51.090;-1.786;2023-04-27T01:16:39;101025.03;;;16.62;40.70
53246;BME280;39569;51.090;-1.786;2023-04-27T01:19:06;101032.66;;;16.46;40.90
53246;BME280;39569;51.090;-1.786;2023-04-27T01:21:33;101026.09;;;16.61;41.04
53246;BME280;39569;51.090;-1.786;2023-04-27T01:24:03;101032.72;;;16.72;40.63
53246;BME280;39569;51.090;-1.786;2023-04-27T01:26:30;101034.19;;;16.68;40.80
53246;BME280;39569;51.090;-1.786;2023-04-27T01:28:56;101039.38;;;16.76;40.74
53246;BME280;39569;51.090;-1.786;2023-04-27T01:31:23;101037.31;;;16.72;41.02
53246;BME280;39569;51.090;-1.786;2023-04-27T01:33:50;101039.78;;;16.93;40.66
53246;BME280;39569;51.090;-1.786;2023-04-27T01:36:17;101033.16;;;16.69;41.22
53246;BME280;39569;51.090;-1.786;2023-04-27T01:38:43;101035.44;;;16.79;40.80
53246;BME280;39569;51.090;-1.786;2023-04-27T01:41:11;101039.78;;;16.80;41.14
53246;BME280;39569;51.090;-1.786;2023-04-27T01:43:38;101042.28;;;16.88;40.62
53246;BME280;39569;51.090;-1.786;2023-04-27T01:46:07;101047.06;;;16.66;41.71
53246;BME280;39569;51.090;-1.786;2023-04-27T01:48:34;101045.59;;;16.96;40.85
53246;BME280;39569;51.090;-1.786;2023-04-27T01:51:01;101043.72;;;17.03;40.58
53246;BME280;39569;51.090;-1.786;2023-04-27T01:53:28;101041.66;;;17.12;40.25
53246;BME280;39569;51.090;-1.786;2023-04-27T01:55:55;101043.31;;;17.06;40.38
53246;BME280;39569;51.090;-1.786;2023-04-27T01:58:23;101037.06;;;17.19;40.29
53246;BME280;39569;51.090;-1.786;2023-04-27T02:00:50;101040.63;;;17.19;40.24
53246;BME280;39569;51.090;-1.786;2023-04-27T02:03:17;101045.81;;;17.08;40.47
53246;BME280;39569;51.090;-1.786;2023-04-27T02:05:43;101036.88;;;17.07;40.83
53246;BME280;39569;51.090;-1.786;2023-04-27T02:08:11;101034.19;;;17.07;40.76
53246;BME280;39569;51.090;-1.786;2023-04-27T02:10:38;101030.44;;;16.89;41.54
53246;BME280;39569;51.090;-1.786;2023-04-27T02:13:05;101017.38;;;17.05;41.25
53246;BME280;39569;51.090;-1.786;2023-04-27T02:15:33;101020.28;;;17.04;41.52
53246;BME280;39569;51.090;-1.786;2023-04-27T02:18:01;101021.97;;;16.79;41.24
53246;BME280;39569;51.090;-1.786;2023-04-27T02:20:28;101019.88;;;17.07;41.26
53246;BME280;39569;51.090;-1.786;2023-04-27T02:22:55;101024.25;;;16.88;41.07
53246;BME280;39569;51.090;-1.786;2023-04-27T02:25:22;101013.44;;;16.95;40.86
53246;BME280;39569;51.090;-1.786;2023-04-27T02:27:49;101008.47;;;17.05;41.14
53246;BME280;39569;51.090;-1.786;2023-04-27T02:30:15;101005.13;;;16.96;41.57
53246;BME280;39569;51.090;-1.786;2023-04-27T02:32:44;100998.47;;;17.05;41.44
53246;BME280;39569;51.090;-1.786;2023-04-27T02:35:11;100997.63;;;17.11;41.40
53246;BME280;39569;51.090;-1.786;2023-04-27T02:37:38;100992.66;;;17.21;41.09
53246;BME280;39569;51.090;-1.786;2023-04-27T02:40:06;100986.63;;;17.19;41.56
53246;BME280;39569;51.090;-1.786;2023-04-27T02:42:34;100971.91;;;17.02;41.42
53246;BME280;39569;51.090;-1.786;2023-04-27T02:45:03;100970.44;;;17.13;41.37
53246;BME280;39569;51.090;-1.786;2023-04-27T02:47:31;100972.09;;;17.07;41.79
53246;BME280;39569;51.090;-1.786;2023-04-27T02:49:59;100970.59;;;17.37;41.02
53246;BME280;39569;51.090;-1.786;2023-04-27T02:52:26;100964.94;;;17.52;41.09
53246;BME280;39569;51.090;-1.786;2023-04-27T02:54:52;100968.69;;;17.44;41.33
53246;BME280;39569;51.090;-1.786;2023-04-27T02:57:19;100965.75;;;17.59;41.38
53246;BME280;39569;51.090;-1.786;2023-04-27T02:59:46;100960.75;;;17.62;41.33
53246;BME280;39569;51.090;-1.786;2023-04-27T03:02:13;100964.94;;;17.58;41.84
53246;BME280;39569;51.090;-1.786;2023-04-27T03:04:39;100954.53;;;17.62;41.44
53246;BME280;39569;51.090;-1.786;2023-04-27T03:07:09;100950.00;;;17.43;42.06
53246;BME280;39569;51.090;-1.786;2023-04-27T03:09:36;100949.19;;;17.36;41.95
53246;BME280;39569;51.090;-1.786;2023-04-27T03:12:03;100943.91;;;17.60;41.72
53246;BME280;39569;51.090;-1.786;2023-04-27T03:14:30;100946.88;;;17.52;41.90
53246;BME280;39569;51.090;-1.786;2023-04-27T03:16:56;100946.81;;;18.03;41.30
53246;BME280;39569;51.090;-1.786;2023-04-27T03:19:23;100947.50;;;17.92;41.43
53246;BME280;39569;51.090;-1.786;2023-04-27T03:21:50;100942.91;;;17.99;41.45
53246;BME280;39569;51.090;-1.786;2023-04-27T03:24:18;100944.47;;;17.76;42.21
53246;BME280;39569;51.090;-1.786;2023-04-27T03:26:46;100941.31;;;17.85;41.69
53246;BME280;39569;51.090;-1.786;2023-04-27T03:29:13;100939.34;;;17.61;41.88
53246;BME280;39569;51.090;-1.786;2023-04-27T03:31:39;100941.81;;;17.69;41.89
53246;BME280;39569;51.090;-1.786;2023-04-27T03:34:06;100941.97;;;17.81;41.64
53246;BME280;39569;51.090;-1.786;2023-04-27T03:36:33;100935.69;;;17.49;42.04
53246;BME280;39569;51.090;-1.786;2023-04-27T03:39:00;100930.84;;;17.57;42.03
53246;BME280;39569;51.090;-1.786;2023-04-27T03:41:28;100935.81;;;17.60;42.33
53246;BME280;39569;51.090;-1.786;2023-04-27T03:43:55;100936.66;;;16.97;43.37
53246;BME280;39569;51.090;-1.786;2023-04-27T03:46:21;100931.00;;;17.12;43.24
53246;BME280;39569;51.090;-1.786;2023-04-27T03:48:48;100927.00;;;17.27;42.82
53246;BME280;39569;51.090;-1.786;2023-04-27T03:51:15;100925.13;;;17.28;43.08
53246;BME280;39569;51.090;-1.786;2023-04-27T03:53:42;100925.13;;;17.28;42.92
53246;BME280;39569;51.090;-1.786;2023-04-27T03:56:09;100921.13;;;17.50;42.82
53246;BME280;39569;51.090;-1.786;2023-04-27T03:58:37;100926.31;;;17.45;42.80
53246;BME280;39569;51.090;-1.786;2023-04-27T04:01:04;100922.97;;;17.56;42.00
53246;BME280;39569;51.090;-1.786;2023-04-27T04:03:31;100921.66;;;17.72;42.03
53246;BME280;39569;51.090;-1.786;2023-04-27T04:05:57;100927.69;;;17.67;42.03
53246;BME280;39569;51.090;-1.786;2023-04-27T04:08:24;100907.00;;;17.48;42.61
53246;BME280;39569;51.090;-1.786;2023-04-27T04:10:51;100907.41;;;17.51;42.27
53246;BME280;39569;51.090;-1.786;2023-04-27T04:13:17;100908.84;;;17.54;42.26
53246;BME280;39569;51.090;-1.786;2023-04-27T04:15:46;100901.22;;;17.82;41.64
53246;BME280;39569;51.090;-1.786;2023-04-27T04:18:13;100892.59;;;17.60;42.21
53246;BME280;39569;51.090;-1.786;2023-04-27T04:20:39;100901.94;;;17.64;42.22
53246;BME280;39569;51.090;-1.786;2023-04-27T04:23:06;100902.38;;;17.55;42.67
53246;BME280;39569;51.090;-1.786;2023-04-27T04:25:33;100901.59;;;17.48;42.92
53246;BME280;39569;51.090;-1.786;2023-04-27T04:28:00;100902.53;;;17.66;42.57
53246;BME280;39569;51.090;-1.786;2023-04-27T04:30:27;100904.63;;;17.71;42.13
53246;BME280;39569;51.090;-1.786;2023-04-27T04:32:55;100896.22;;;17.86;42.12
53246;BME280;39569;51.090;-1.786;2023-04-27T04:35:22;100890.94;;;17.66;42.69
53246;BME280;39569;51.090;-1.786;2023-04-27T04:37:48;100903.78;;;17.71;42.52
53246;BME280;39569;51.090;-1.786;2023-04-27T04:40:15;100895.66;;;17.77;42.58
53246;BME280;39569;51.090;-1.786;2023-04-27T04:42:42;100891.81;;;17.85;42.56
53246;BME280;39569;51.090;-1.786;2023-04-27T04:45:09;100886.19;;;17.93;42.48
53246;BME280;39569;51.090;-1.786;2023-04-27T04:47:36;100878.59;;;18.08;42.19
53246;BME280;39569;51.090;-1.786;2023-04-27T04:50:06;100876.81;;;17.95;42.50
53246;BME280;39569;51.090;-1.786;2023-04-27T04:52:33;100875.22;;;17.81;42.97
53246;BME280;39569;51.090;-1.786;2023-04-27T04:55:01;100883.53;;;17.86;42.69
53246;BME280;39569;51.090;-1.786;2023-04-27T04:57:28;100882.03;;;17.90;43.01
53246;BME280;39569;51.090;-1.786;2023-04-27T04:59:55;100892.03;;;18.14;42.49
53246;BME280;39569;51.090;-1.786;2023-04-27T05:02:22;100897.25;;;18.16;42.53
53246;BME280;39569;51.090;-1.786;2023-04-27T05:04:49;100895.16;;;18.18;42.68
53246;BME280;39569;51.090;-1.786;2023-04-27T05:07:18;100895.47;;;18.28;42.79
53246;BME280;39569;51.090;-1.786;2023-04-27T05:09:45;100884.13;;;18.19;42.97
53246;BME280;39569;51.090;-1.786;2023-04-27T05:12:12;100880.09;;;18.28;42.97
53246;BME280;39569;51.090;-1.786;2023-04-27T05:14:38;100873.34;;;18.37;42.81
53246;BME280;39569;51.090;-1.786;2023-04-27T05:17:05;100872.28;;;18.45;42.85
53246;BME280;39569;51.090;-1.786;2023-04-27T05:19:32;100862.00;;;18.53;42.82
53246;BME280;39569;51.090;-1.786;2023-04-27T05:21:59;100874.38;;;18.36;42.98
53246;BME280;39569;51.090;-1.786;2023-04-27T05:24:27;100880.16;;;18.46;43.37
53246;BME280;39569;51.090;-1.786;2023-04-27T05:26:54;100876.88;;;18.62;43.23
53246;BME280;39569;51.090;-1.786;2023-04-27T05:29:21;100886.44;;;18.65;42.96
53246;BME280;39569;51.090;-1.786;2023-04-27T05:31:48;100896.72;;;18.56;43.12
53246;BME280;39569;51.090;-1.786;2023-04-27T05:34:15;100899.31;;;18.70;43.05
53246;BME280;39569;51.090;-1.786;2023-04-27T05:36:42;100889.63;;;18.80;42.75
53246;BME280;39569;51.090;-1.786;2023-04-27T05:39:08;100876.56;;;18.95;42.52
53246;BME280;39569;51.090;-1.786;2023-04-27T05:41:37;100882.50;;;19.04;42.37
53246;BME280;39569;51.090;-1.786;2023-04-27T05:44:04;100874.00;;;19.00;42.26
53246;BME280;39569;51.090;-1.786;2023-04-27T05:46:31;100869.78;;;19.22;42.43
53246;BME280;39569;51.090;-1.786;2023-04-27T05:48:59;100879.84;;;19.15;42.44
53246;BME280;39569;51.090;-1.786;2023-04-27T05:51:25;100891.06;;;18.83;43.01
53246;BME280;39569;51.090;-1.786;2023-04-27T05:53:53;100878.19;;;19.14;42.51
53246;BME280;39569;51.090;-1.786;2023-04-27T05:56:20;100879.34;;;19.25;42.30
53246;BME280;39569;51.090;-1.786;2023-04-27T05:58:48;100875.53;;;19.32;42.44
53246;BME280;39569;51.090;-1.786;2023-04-27T06:01:15;100870.84;;;19.39;42.19
53246;BME280;39569;51.090;-1.786;2023-04-27T06:03:41;100876.47;;;19.20;42.74
53246;BME280;39569;51.090;-1.786;2023-04-27T06:06:08;100874.88;;;19.48;42.22
53246;BME280;39569;51.090;-1.786;2023-04-27T06:08:35;100866.47;;;19.68;41.77
53246;BME280;39569;51.090;-1.786;2023-04-27T06:11:04;100861.81;;;19.75;41.70
53246;BME280;39569;51.090;-1.786;2023-04-27T06:13:31;100858.16;;;19.51;42.15
53246;BME280;39569;51.090;-1.786;2023-04-27T06:15:59;100854.84;;;19.79;41.84
53246;BME280;39569;51.090;-1.786;2023-04-27T06:18:26;100856.03;;;19.83;41.69
53246;BME280;39569;51.090;-1.786;2023-04-27T06:20:57;100854.94;;;19.73;41.79
53246;BME280;39569;51.090;-1.786;2023-04-27T06:23:24;100855.13;;;19.89;41.63
53246;BME280;39569;51.090;-1.786;2023-04-27T06:25:51;100857.59;;;19.91;41.51
53246;BME280;39569;51.090;-1.786;2023-04-27T06:28:17;100865.16;;;20.00;41.29
53246;BME280;39569;51.090;-1.786;2023-04-27T06:30:44;100860.56;;;20.01;41.34
53246;BME280;39569;51.090;-1.786;2023-04-27T06:33:13;100866.13;;;20.06;41.26
53246;BME280;39569;51.090;-1.786;2023-04-27T06:35:39;100857.34;;;19.92;41.54
53246;BME280;39569;51.090;-1.786;2023-04-27T06:38:06;100859.91;;;19.76;41.73
53246;BME280;39569;51.090;-1.786;2023-04-27T06:40:34;100862.78;;;19.92;41.53
53246;BME280;39569;51.090;-1.786;2023-04-27T06:43:01;100866.13;;;20.06;41.51
53246;BME280;39569;51.090;-1.786;2023-04-27T06:45:28;100854.44;;;20.05;41.58
53246;BME280;39569;51.090;-1.786;2023-04-27T06:47:54;100859.47;;;19.90;41.58
53246;BME280;39569;51.090;-1.786;2023-04-27T06:50:23;100869.28;;;19.91;41.88
53246;BME280;39569;51.090;-1.786;2023-04-27T06:52:49;100868.69;;;19.59;42.28
53246;BME280;39569;51.090;-1.786;2023-04-27T06:55:16;100877.22;;;20.16;41.50
53246;BME280;39569;51.090;-1.786;2023-04-27T06:57:43;100876.09;;;19.52;42.48
53246;BME280;39569;51.090;-1.786;2023-04-27T07:00:11;100887.19;;;19.63;42.46
53246;BME280;39569;51.090;-1.786;2023-04-27T07:02:38;100889.81;;;19.99;41.97
53246;BME280;39569;51.090;-1.786;2023-04-27T07:05:05;100898.97;;;19.98;41.65
53246;BME280;39569;51.090;-1.786;2023-04-27T07:07:34;100895.19;;;19.87;41.90
53246;BME280;39569;51.090;-1.786;2023-04-27T07:10:00;100903.72;;;20.02;41.89
53246;BME280;39569;51.090;-1.786;2023-04-27T07:12:27;100898.72;;;19.88;42.47
53246;BME280;39569;51.090;-1.786;2023-04-27T07:14:54;100897.19;;;20.33;41.39
53246;BME280;39569;51.090;-1.786;2023-04-27T07:17:21;100900.78;;;20.45;41.22
53246;BME280;39569;51.090;-1.786;2023-04-27T07:19:47;100893.72;;;20.03;41.72
53246;BME280;39569;51.090;-1.786;2023-04-27T07:22:14;100881.88;;;20.27;41.51
53246;BME280;39569;51.090;-1.786;2023-04-27T07:24:43;100865.50;;;20.45;41.11
53246;BME280;39569;51.090;-1.786;2023-04-27T07:27:10;100854.63;;;20.33;41.11
53246;BME280;39569;51.090;-1.786;2023-04-27T07:29:37;100848.59;;;20.31;41.47
53246;BME280;39569;51.090;-1.786;2023-04-27T07:32:05;100860.06;;;20.33;41.58
53246;BME280;39569;51.090;-1.786;2023-04-27T07:34:32;100855.16;;;20.01;42.21
53246;BME280;39569;51.090;-1.786;2023-04-27T07:36:59;100843.19;;;20.31;41.71
53246;BME280;39569;51.090;-1.786;2023-04-27T07:39:26;100849.78;;;20.24;41.63
53246;BME280;39569;51.090;-1.786;2023-04-27T07:41:55;100850.75;;;20.00;42.12
53246;BME280;39569;51.090;-1.786;2023-04-27T07:44:22;100844.59;;;19.70;42.70
53246;BME280;39569;51.090;-1.786;2023-04-27T07:46:50;100837.88;;;20.25;41.66
53246;BME280;39569;51.090;-1.786;2023-04-27T07:49:19;100828.44;;;20.50;41.28
53246;BME280;39569;51.090;-1.786;2023-04-27T07:51:45;100829.28;;;20.51;40.99
53246;BME280;39569;51.090;-1.786;2023-04-27T07:54:12;100834.91;;;19.74;42.18
53246;BME280;39569;51.090;-1.786;2023-04-27T07:56:40;100834.94;;;19.85;41.79
53246;BME280;39569;51.090;-1.786;2023-04-27T07:59:08;100824.91;;;20.27;41.46
53246;BME280;39569;51.090;-1.786;2023-04-27T08:01:35;100838.56;;;19.68;42.21
53246;BME280;39569;51.090;-1.786;2023-04-27T08:04:02;100842.47;;;19.83;42.87
53246;BME280;39569;51.090;-1.786;2023-04-27T08:06:29;100835.75;;;19.74;42.63
53246;BME280;39569;51.090;-1.786;2023-04-27T08:08:56;100835.59;;;20.10;41.99
53246;BME280;39569;51.090;-1.786;2023-04-27T08:11:25;100835.22;;;20.07;41.77
53246;BME280;39569;51.090;-1.786;2023-04-27T08:13:51;100839.13;;;19.99;42.04
53246;BME280;39569;51.090;-1.786;2023-04-27T08:16:20;100825.97;;;19.85;42.23
53246;BME280;39569;51.090;-1.786;2023-04-27T08:18:48;100824.31;;;20.36;41.34
53246;BME280;39569;51.090;-1.786;2023-04-27T08:21:15;100814.81;;;20.97;39.96
53246;BME280;39569;51.090;-1.786;2023-04-27T08:23:42;100820.72;;;21.05;39.99
53246;BME280;39569;51.090;-1.786;2023-04-27T08:26:13;100818.13;;;21.10;39.97
53246;BME280;39569;51.090;-1.786;2023-04-27T08:28:39;100826.72;;;20.03;41.36
53246;BME280;39569;51.090;-1.786;2023-04-27T08:31:06;100816.75;;;20.73;40.69
53246;BME280;39569;51.090;-1.786;2023-04-27T08:33:34;100816.19;;;20.25;41.51
53246;BME280;39569;51.090;-1.786;2023-04-27T08:36:01;100817.63;;;19.98;42.38
53246;BME280;39569;51.090;-1.786;2023-04-27T08:38:28;100822.09;;;19.81;42.50
53246;BME280;39569;51.090;-1.786;2023-04-27T08:40:55;100816.16;;;20.36;41.30
53246;BME280;39569;51.090;-1.786;2023-04-27T08:43:22;100808.72;;;20.55;41.33
53246;BME280;39569;51.090;-1.786;2023-04-27T08:45:49;100798.97;;;21.05;39.96
53246;BME280;39569;51.090;-1.786;2023-04-27T08:48:16;100809.22;;;20.29;40.96
53246;BME280;39569;51.090;-1.786;2023-04-27T08:50:45;100800.47;;;20.62;41.11
53246;BME280;39569;51.090;-1.786;2023-04-27T08:53:16;100805.72;;;20.91;40.30
53246;BME280;39569;51.090;-1.786;2023-04-27T08:55:43;100804.97;;;20.33;41.07
53246;BME280;39569;51.090;-1.786;2023-04-27T08:58:10;100810.59;;;20.78;40.19
53246;BME280;39569;51.090;-1.786;2023-04-27T09:00:37;100805.25;;;20.02;41.66
53246;BME280;39569;51.090;-1.786;2023-04-27T09:03:06;100790.09;;;20.47;41.17
53246;BME280;39569;51.090;-1.786;2023-04-27T09:05:32;100794.97;;;20.85;40.52
53246;BME280;39569;51.090;-1.786;2023-04-27T09:08:02;100784.94;;;21.53;39.76
53246;BME280;39569;51.090;-1.786;2023-04-27T09:10:42;100783.00;;;20.46;41.14
53246;BME280;39569;51.090;-1.786;2023-04-27T09:13:09;100780.28;;;20.69;41.23
53246;BME280;39569;51.090;-1.786;2023-04-27T09:15:43;100782.94;;;21.32;40.35
53246;BME280;39569;51.090;-1.786;2023-04-27T09:18:14;100776.16;;;21.63;39.41
53246;BME280;39569;51.090;-1.786;2023-04-27T09:20:43;100774.91;;;21.53;40.02
53246;BME280;39569;51.090;-1.786;2023-04-27T09:23:24;100776.84;;;21.70;38.67
53246;BME280;39569;51.090;-1.786;2023-04-27T09:25:52;100764.91;;;21.42;40.17
53246;BME280;39569;51.090;-1.786;2023-04-27T09:28:19;100771.41;;;21.25;40.23
53246;BME280;39569;51.090;-1.786;2023-04-27T09:30:51;100770.72;;;20.55;40.90
53246;BME280;39569;51.090;-1.786;2023-04-27T09:33:21;100758.38;;;20.87;40.93
53246;BME280;39569;51.090;-1.786;2023-04-27T09:35:49;100757.66;;;21.03;40.56
53246;BME280;39569;51.090;-1.786;2023-04-27T09:38:17;100760.47;;;21.08;40.75
53246;BME280;39569;51.090;-1.786;2023-04-27T09:40:45;100755.28;;;21.51;39.61
53246;BME280;39569;51.090;-1.786;2023-04-27T09:43:12;100756.47;;;21.27;40.50
53246;BME280;39569;51.090;-1.786;2023-04-27T09:45:40;100759.78;;;21.29;40.07
53246;BME280;39569;51.090;-1.786;2023-04-27T09:48:07;100756.06;;;21.19;40.74
53246;BME280;39569;51.090;-1.786;2023-04-27T09:50:35;100743.38;;;21.69;40.14
53246;BME280;39569;51.090;-1.786;2023-04-27T09:53:05;100746.47;;;21.44;40.15
53246;BME280;39569;51.090;-1.786;2023-04-27T09:55:37;100749.78;;;21.46;39.91
53246;BME280;39569;51.090;-1.786;2023-04-27T09:58:24;100745.94;;;21.31;40.22
53246;BME280;39569;51.090;-1.786;2023-04-27T10:01:01;100728.63;;;21.65;39.94
53246;BME280;39569;51.090;-1.786;2023-04-27T10:03:35;100733.56;;;21.51;39.88
53246;BME280;39569;51.090;-1.786;2023-04-27T10:06:41;100742.28;;;21.70;39.64
53246;BME280;39569;51.090;-1.786;2023-04-27T10:09:15;100739.09;;;21.57;40.37
53246;BME280;39569;51.090;-1.786;2023-04-27T10:11:50;100739.34;;;20.99;41.09
53246;BME280;39569;51.090;-1.786;2023-04-27T10:14:18;100738.28;;;20.60;41.94
53246;BME280;39569;51.090;-1.786;2023-04-27T10:16:51;100735.59;;;20.88;42.04
53246;BME280;39569;51.090;-1.786;2023-04-27T10:19:18;100742.72;;;20.66;42.20
53246;BME280;39569;51.090;-1.786;2023-04-27T10:21:53;100744.25;;;20.74;41.88
53246;BME280;39569;51.090;-1.786;2023-04-27T10:24:34;100739.81;;;21.07;41.11
53246;BME280;39569;51.090;-1.786;2023-04-27T10:27:04;100751.41;;;21.03;41.52
53246;BME280;39569;51.090;-1.786;2023-04-27T10:29:36;100753.25;;;20.63;42.00
53246;BME280;39569;51.090;-1.786;2023-04-27T10:32:07;100745.75;;;20.41;42.78
53246;BME280;39569;51.090;-1.786;2023-04-27T10:34:35;100754.19;;;20.68;42.38
53246;BME280;39569;51.090;-1.786;2023-04-27T10:37:06;100751.88;;;20.14;43.24
53246;BME280;39569;51.090;-1.786;2023-04-27T10:39:38;100762.94;;;21.38;41.04
53246;BME280;39569;51.090;-1.786;2023-04-27T10:42:07;100759.75;;;20.73;42.17
53246;BME280;39569;51.090;-1.786;2023-04-27T10:44:35;100764.19;;;20.79;42.56
53246;BME280;39569;51.090;-1.786;2023-04-27T10:47:12;100763.97;;;20.81;42.30
53246;BME280;39569;51.090;-1.786;2023-04-27T10:49:39;100754.81;;;20.98;42.03
53246;BME280;39569;51.090;-1.786;2023-04-27T10:52:06;100752.47;;;21.02;42.58
53246;BME280;39569;51.090;-1.786;2023-04-27T10:54:34;100747.38;;;20.94;41.85
53246;BME280;39569;51.090;-1.786;2023-04-27T10:57:03;100736.41;;;21.28;41.86
53246;BME280;39569;51.090;-1.786;2023-04-27T10:59:31;100740.75;;;21.01;42.13
53246;BME280;39569;51.090;-1.786;2023-04-27T11:01:58;100740.44;;;21.26;41.69
53246;BME280;39569;51.090;-1.786;2023-04-27T11:04:35;100739.44;;;22.10;40.57
53246;BME280;39569;51.090;-1.786;2023-04-27T11:07:02;100737.75;;;21.76;40.97
53246;BME280;39569;51.090;-1.786;2023-04-27T11:09:30;100735.56;;;21.28;41.65
53246;BME280;39569;51.090;-1.786;2023-04-27T11:11:57;100729.31;;;20.99;42.05
53246;BME280;39569;51.090;-1.786;2023-04-27T11:14:23;100717.72;;;21.32;41.68
53246;BME280;39569;51.090;-1.786;2023-04-27T11:16:52;100715.28;;;21.02;42.47
53246;BME280;39569;51.090;-1.786;2023-04-27T11:19:19;100706.81;;;21.60;41.56
53246;BME280;39569;51.090;-1.786;2023-04-27T11:21:46;100696.69;;;21.11;42.18
53246;BME280;39569;51.090;-1.786;2023-04-27T11:24:12;100681.59;;;21.81;40.80
53246;BME280;39569;51.090;-1.786;2023-04-27T11:26:39;100670.44;;;21.66;41.60
53246;BME280;39569;51.090;-1.786;2023-04-27T11:29:08;100671.34;;;21.88;41.09
53246;BME280;39569;51.090;-1.786;2023-04-27T11:31:39;100660.59;;;21.60;41.72
53246;BME280;39569;51.090;-1.786;2023-04-27T11:34:14;100653.97;;;21.89;40.95
53246;BME280;39569;51.090;-1.786;2023-04-27T11:36:41;100647.97;;;21.37;42.30
53246;BME280;39569;51.090;-1.786;2023-04-27T11:39:08;100646.75;;;21.45;42.57
53246;BME280;39569;51.090;-1.786;2023-04-27T11:41:42;100641.91;;;21.47;42.49
53246;BME280;39569;51.090;-1.786;2023-04-27T11:44:11;100634.97;;;21.23;44.21
53246;BME280;39569;51.090;-1.786;2023-04-27T11:46:38;100630.81;;;21.70;43.11
53246;BME280;39569;51.090;-1.786;2023-04-27T11:49:11;100638.84;;;21.60;43.46
53246;BME280;39569;51.090;-1.786;2023-04-27T11:51:38;100637.03;;;21.49;44.21
53246;BME280;39569;51.090;-1.786;2023-04-27T11:54:06;100635.34;;;21.65;43.62
53246;BME280;39569;51.090;-1.786;2023-04-27T11:56:33;100638.09;;;22.19;41.68
53246;BME280;39569;51.090;-1.786;2023-04-27T11:59:01;100635.47;;;21.70;43.29
53246;BME280;39569;51.090;-1.786;2023-04-27T12:01:30;100626.38;;;21.64;43.16
53246;BME280;39569;51.090;-1.786;2023-04-27T12:03:57;100630.66;;;21.93;42.59
53246;BME280;39569;51.090;-1.786;2023-04-27T12:06:25;100638.38;;;21.02;44.00
53246;BME280;39569;51.090;-1.786;2023-04-27T12:08:53;100636.34;;;21.09;43.72
53246;BME280;39569;51.090;-1.786;2023-04-27T12:11:21;100628.06;;;20.87;43.79
53246;BME280;39569;51.090;-1.786;2023-04-27T12:13:48;100613.88;;;21.30;43.18
53246;BME280;39569;51.090;-1.786;2023-04-27T12:16:15;100604.19;;;21.34;43.12
53246;BME280;39569;51.090;-1.786;2023-04-27T12:18:42;100609.69;;;21.94;42.58
53246;BME280;39569;51.090;-1.786;2023-04-27T12:21:08;100613.09;;;22.01;42.56
53246;BME280;39569;51.090;-1.786;2023-04-27T12:23:37;100609.88;;;21.32;43.31
53246;BME280;39569;51.090;-1.786;2023-04-27T12:26:03;100608.03;;;21.05;43.33
53246;BME280;39569;51.090;-1.786;2023-04-27T12:28:30;100616.00;;;20.67;44.98
53246;BME280;39569;51.090;-1.786;2023-04-27T12:30:57;100609.03;;;21.48;43.10
53246;BME280;39569;51.090;-1.786;2023-04-27T12:33:24;100610.69;;;20.88;43.58
53246;BME280;39569;51.090;-1.786;2023-04-27T12:35:51;100611.63;;;20.66;44.54
53246;BME280;39569;51.090;-1.786;2023-04-27T12:38:18;100609.34;;;20.74;44.45
53246;BME280;39569;51.090;-1.786;2023-04-27T12:40:46;100604.59;;;20.81;44.40
53246;BME280;39569;51.090;-1.786;2023-04-27T12:43:13;100610.78;;;21.38;43.28